Startpagina
METAR-TAF:

METAR-TAF

Vliegvelden :

Luchthaven Mitiga Internationaal

Tripoli, Libië

breedte: 32-54N, lengte: 13-17E, hoogte: 11 m

METAR: ontbreekt

Tijdstip: 13:27 (11:27 UTC)

Verwachting

Dit bericht is 27 minuten geleden gemaakt, om 11:00 UTC
Verwachting geldig van 26 om 12 UTC tot 27 om 12 UTC
Wind 10 kt uit het noordnoordwesten
Zicht: 8000 m
Weinig wolken op 3000 ft
Verspreide wolken op 7000 ft
Wijzigt naar
van 27 om 02 UTC tot 27 om 04 UTC
Wind 10 kt uit het zuidwesten

TAF: HLLM 261100Z 2612/2712 34010KT 8000 FEW030 SCT070 BECMG 2702/2704 22010KT

Waarnemingen en weersverwachtingen van meer dan 4000 vliegvelden (METAR en TAF).

De beschikbare stations zijn de gele en rode punten op de kaart.

Ga met uw muis naar het station om de naam te zien.

Klik dan om waarnemingen en weersverwachtingen te zien.

kaart wijzigen: klik op de groene knoppen met een zwart kruis om in te zoomen, op de groene knop met een streepje om uit te zoomen of op de groene pijlen voor aangrenzende kaarten.


METAR-TAF: